createdAt,value
2023-03-23T15:58:13.688Z,28.80
2023-03-23T16:00:41.874Z,30.04
2023-03-23T16:03:10.712Z,29.94
2023-03-23T16:05:38.347Z,29.09
2023-03-23T16:08:06.341Z,28.41
2023-03-23T16:10:33.951Z,26.83
2023-03-23T16:13:01.649Z,26.31
2023-03-23T16:15:30.595Z,27.31
2023-03-23T16:17:58.987Z,26.80
2023-03-23T16:20:26.761Z,27.83
2023-03-23T16:22:54.752Z,26.01
2023-03-23T16:25:22.368Z,26.73
2023-03-23T16:27:52.309Z,26.43
2023-03-23T16:30:21.151Z,27.56
2023-03-23T16:32:50.407Z,26.99
2023-03-23T16:35:19.391Z,26.96
2023-03-23T16:37:47.239Z,26.86
2023-03-23T16:40:14.981Z,27.20
2023-03-23T16:42:42.606Z,25.31
2023-03-23T16:45:10.597Z,26.33
2023-03-23T16:47:38.284Z,26.89
2023-03-23T16:50:08.434Z,26.65
2023-03-23T16:52:46.337Z,26.28
2023-03-23T16:55:14.769Z,25.11
2023-03-23T16:57:43.557Z,26.45
2023-03-23T17:00:12.608Z,26.50
2023-03-23T17:02:41.885Z,27.71
2023-03-23T17:05:11.443Z,27.83
2023-03-23T17:07:39.164Z,27.39
2023-03-23T17:10:07.813Z,26.47
2023-03-23T17:12:35.606Z,28.59
2023-03-23T17:15:03.388Z,27.46
2023-03-23T17:17:31.021Z,27.13
2023-03-23T17:19:58.686Z,23.67
2023-03-23T17:22:27.746Z,26.41
2023-03-23T17:24:57.257Z,24.66
2023-03-23T17:27:24.977Z,23.19
2023-03-23T17:29:52.616Z,27.92
2023-03-23T17:32:21.709Z,26.67
2023-03-23T17:34:49.293Z,26.35
2023-03-23T17:37:16.942Z,24.70
2023-03-23T17:39:47.977Z,22.66
2023-03-23T17:42:16.024Z,24.43
2023-03-23T17:44:43.726Z,20.51
2023-03-23T17:47:11.346Z,21.85
2023-03-23T17:49:39.210Z,21.92
2023-03-23T17:52:09.252Z,20.82
2023-03-23T17:54:37.304Z,20.45
2023-03-23T17:57:06.416Z,21.49
2023-03-23T17:59:34.064Z,24.12
2023-03-23T18:02:01.696Z,24.73
2023-03-23T18:04:29.387Z,24.88
2023-03-23T18:06:57.616Z,25.47
2023-03-23T18:09:25.652Z,27.17
2023-03-23T18:11:53.538Z,25.43
2023-03-23T18:14:22.602Z,27.07
2023-03-23T18:16:50.358Z,24.43
2023-03-23T18:19:18.064Z,24.29
2023-03-23T18:21:46.119Z,23.95
2023-03-23T18:24:14.060Z,25.38
2023-03-23T18:26:41.800Z,26.53
2023-03-23T18:29:09.676Z,24.43
2023-03-23T18:31:40.279Z,24.15
2023-03-23T18:34:08.325Z,24.72
2023-03-23T18:36:36.413Z,23.88
2023-03-23T18:39:05.610Z,24.27
2023-03-23T18:41:33.236Z,24.77
2023-03-23T18:44:00.987Z,22.51
2023-03-23T18:46:28.712Z,23.60
2023-03-23T18:48:57.798Z,24.40
2023-03-23T18:51:26.209Z,24.03
2023-03-23T18:53:53.943Z,25.43
2023-03-23T18:56:21.622Z,25.28
2023-03-23T18:58:49.251Z,25.24
2023-03-23T19:01:17.823Z,25.31
2023-03-23T19:03:47.289Z,24.94
2023-03-23T19:06:18.386Z,25.92
2023-03-23T19:08:46.184Z,25.83
2023-03-23T19:11:14.083Z,26.89
2023-03-23T19:13:53.955Z,26.05
2023-03-23T19:16:27.331Z,26.49
2023-03-23T19:18:55.122Z,26.51
2023-03-23T19:21:25.750Z,26.90
2023-03-23T19:23:53.838Z,27.43
2023-03-23T19:26:23.157Z,27.52
2023-03-23T19:31:24.923Z,26.96
2023-03-23T19:33:53.102Z,27.68
2023-03-23T19:36:21.332Z,27.07
2023-03-23T19:38:50.617Z,27.13
2023-03-23T19:41:19.297Z,25.73
2023-03-23T19:43:47.120Z,26.48
2023-03-23T19:46:14.964Z,26.93
2023-03-23T19:48:42.779Z,27.08
2023-03-23T19:51:11.617Z,26.83
2023-03-23T19:53:39.781Z,25.91
2023-03-23T19:56:11.137Z,24.91
2023-03-23T19:58:39.181Z,25.54
2023-03-23T20:01:06.928Z,25.95
2023-03-23T20:03:37.557Z,26.10
2023-03-23T20:06:11.091Z,25.90
2023-03-23T20:08:39.301Z,26.61
2023-03-23T20:11:07.522Z,25.19
2023-03-23T20:13:36.809Z,25.53
2023-03-23T20:16:04.552Z,24.64
2023-03-23T20:18:32.430Z,25.73
2023-03-23T20:21:03.808Z,25.42
2023-03-23T20:23:32.081Z,26.51
2023-03-23T20:26:00.452Z,25.85
2023-03-23T20:28:28.532Z,25.92
2023-03-23T20:31:16.886Z,24.64
2023-03-23T20:33:48.023Z,24.95
2023-03-23T20:36:30.120Z,26.47
2023-03-23T20:38:58.502Z,25.83
2023-03-23T20:41:26.251Z,23.80
2023-03-23T20:43:53.946Z,24.34
2023-03-23T20:46:23.471Z,24.26
2023-03-23T20:48:51.690Z,24.12
2023-03-23T20:51:20.945Z,24.46
2023-03-23T20:53:48.906Z,24.57
2023-03-23T20:56:16.656Z,24.31
2023-03-23T20:58:44.538Z,26.18
2023-03-23T21:01:12.247Z,25.73
2023-03-23T21:03:42.331Z,24.77
2023-03-23T21:06:10.644Z,25.86
2023-03-23T21:08:39.124Z,26.61
2023-03-23T21:11:07.617Z,27.20
2023-03-23T21:13:35.294Z,25.00
2023-03-23T21:16:04.008Z,24.01
2023-03-23T21:18:32.055Z,23.79
2023-03-23T21:21:01.364Z,23.50
2023-03-23T21:23:29.606Z,24.78
2023-03-23T21:26:00.446Z,26.69
2023-03-23T21:28:28.665Z,26.36
2023-03-23T21:30:56.368Z,25.07
2023-03-23T21:33:24.045Z,23.39
2023-03-23T21:35:53.642Z,23.63
2023-03-23T21:38:26.016Z,24.24
2023-03-23T21:40:55.500Z,23.35
2023-03-23T21:43:27.388Z,23.39
2023-03-23T21:45:56.398Z,22.89
2023-03-23T21:48:24.550Z,22.28
2023-03-23T21:50:52.209Z,23.01
2023-03-23T21:53:20.311Z,22.57
2023-03-23T21:55:51.430Z,23.24
2023-03-23T21:58:25.374Z,22.58
2023-03-23T22:00:54.529Z,23.06
2023-03-23T22:03:23.474Z,23.16
2023-03-23T22:05:54.192Z,22.40
2023-03-23T22:08:22.344Z,22.59
2023-03-23T22:11:01.424Z,22.89
2023-03-23T22:13:30.243Z,22.75
2023-03-23T22:15:58.047Z,22.58
2023-03-23T22:18:26.045Z,22.88
2023-03-23T22:20:53.773Z,22.50
2023-03-23T22:23:21.557Z,23.13
2023-03-23T22:25:49.213Z,22.71
2023-03-23T22:28:19.427Z,24.42
2023-03-23T22:30:47.717Z,24.06
2023-03-23T22:33:17.598Z,23.34
2023-03-23T22:35:47.901Z,23.81
2023-03-23T22:38:16.435Z,24.87
2023-03-23T22:40:44.418Z,25.07
2023-03-23T22:43:12.309Z,24.11
2023-03-23T22:45:41.483Z,24.31
2023-03-23T22:48:09.194Z,23.85
2023-03-23T22:50:36.885Z,24.02
2023-03-23T22:53:04.619Z,23.59
2023-03-23T22:55:32.343Z,23.21
2023-03-23T22:58:00.073Z,23.82
2023-03-23T23:00:27.796Z,22.86
2023-03-23T23:02:56.927Z,22.90
2023-03-23T23:05:24.598Z,22.67
2023-03-23T23:07:52.277Z,22.18
2023-03-23T23:10:20.207Z,21.99
2023-03-23T23:12:47.908Z,22.34
2023-03-23T23:15:16.242Z,22.72
2023-03-23T23:17:43.999Z,22.22
2023-03-23T23:20:14.029Z,22.40
2023-03-23T23:22:43.755Z,22.38
2023-03-23T23:25:12.641Z,24.14
2023-03-23T23:27:40.393Z,22.71
2023-03-23T23:30:08.827Z,23.15
2023-03-23T23:32:36.774Z,23.76
2023-03-23T23:35:05.186Z,23.47
2023-03-23T23:37:34.227Z,23.40
2023-03-23T23:40:01.900Z,23.97
2023-03-23T23:42:29.654Z,24.20
2023-03-23T23:44:57.427Z,23.56
2023-03-23T23:47:25.211Z,24.99
2023-03-23T23:49:53.101Z,24.26
2023-03-23T23:52:21.036Z,23.94
2023-03-23T23:54:51.466Z,24.60
2023-03-23T23:57:19.289Z,25.31
2023-03-23T23:59:47.044Z,24.60
